createdAt,value
2022-09-09T00:00:48.645Z,16.15
2022-09-09T00:03:24.392Z,16.42
2022-09-09T00:06:03.242Z,15.90
2022-09-09T00:08:56.689Z,14.65
2022-09-09T00:11:51.547Z,15.25
2022-09-09T00:14:35.956Z,14.35
2022-09-09T00:17:08.125Z,14.52
2022-09-09T00:19:52.306Z,14.52
2022-09-09T00:22:21.627Z,14.70
2022-09-09T00:24:54.492Z,13.32
2022-09-09T00:27:43.109Z,12.98
2022-09-09T00:30:21.390Z,12.77
2022-09-09T00:32:49.748Z,13.43
2022-09-09T00:35:32.609Z,13.10
2022-09-09T00:38:04.513Z,12.52
2022-09-09T00:40:35.484Z,12.50
2022-09-09T00:43:30.948Z,11.77
2022-09-09T00:46:41.702Z,11.50
2022-09-09T00:49:16.831Z,11.45
2022-09-09T00:52:07.982Z,10.73
2022-09-09T00:54:40.247Z,11.25
2022-09-09T00:57:29.251Z,10.68
2022-09-09T01:00:06.450Z,11.13
2022-09-09T01:02:42.807Z,10.73
2022-09-09T01:05:16.749Z,10.20
2022-09-09T01:07:47.114Z,10.27
2022-09-09T01:10:26.934Z,9.88
2022-09-09T01:12:56.970Z,9.48
2022-09-09T01:15:30.095Z,9.52
2022-09-09T01:18:12.593Z,9.20
2022-09-09T01:20:45.519Z,9.15
2022-09-09T01:23:12.244Z,9.27
2022-09-09T01:25:44.881Z,8.60
2022-09-09T01:28:18.178Z,8.27
2022-09-09T01:30:45.018Z,8.98
2022-09-09T01:33:16.978Z,8.25
2022-09-09T01:35:59.363Z,8.55
2022-09-09T01:38:26.583Z,8.43
2022-09-09T01:40:53.824Z,8.07
2022-09-09T01:43:23.942Z,8.23
2022-09-09T01:48:24.048Z,7.90
2022-09-09T01:50:50.817Z,7.93
2022-09-09T01:53:19.107Z,7.72
2022-09-09T01:56:09.921Z,7.65
2022-09-09T01:58:42.418Z,7.28
2022-09-09T02:01:15.146Z,7.35
2022-09-09T02:03:45.704Z,7.32
2022-09-09T02:06:15.184Z,7.43
2022-09-09T02:11:18.166Z,7.28
2022-09-09T02:13:47.045Z,6.75
2022-09-09T02:16:13.803Z,6.45
2022-09-09T02:18:46.386Z,6.35
2022-09-09T02:21:14.753Z,6.63
2022-09-09T02:23:43.801Z,6.00
2022-09-09T02:26:12.054Z,6.50
2022-09-09T02:28:39.592Z,6.10
2022-09-09T02:31:07.298Z,6.43
2022-09-09T02:33:42.407Z,5.85
2022-09-09T02:36:10.114Z,5.63
2022-09-09T02:38:40.800Z,5.85
2022-09-09T02:41:07.875Z,5.20
2022-09-09T02:43:35.551Z,5.65
2022-09-09T02:46:20.532Z,5.28
2022-09-09T02:49:10.837Z,5.85
2022-09-09T02:51:49.031Z,5.50
2022-09-09T02:54:39.979Z,5.50
2022-09-09T02:57:11.767Z,5.43
2022-09-09T02:59:39.898Z,5.03
2022-09-09T03:02:07.070Z,5.18
2022-09-09T03:04:34.016Z,5.00
2022-09-09T03:07:00.773Z,5.20
2022-09-09T03:09:27.566Z,5.88
2022-09-09T03:11:55.958Z,5.10
2022-09-09T03:14:25.566Z,4.60
2022-09-09T03:16:53.461Z,4.50
2022-09-09T03:19:20.899Z,4.93
2022-09-09T03:21:48.461Z,4.90
2022-09-09T03:24:15.371Z,4.55
2022-09-09T03:26:45.662Z,4.30
2022-09-09T03:29:13.479Z,4.65
2022-09-09T03:31:40.839Z,4.20
2022-09-09T03:34:08.104Z,4.18
2022-09-09T03:36:35.053Z,4.82
2022-09-09T03:39:03.817Z,4.25
2022-09-09T03:41:31.423Z,4.20
2022-09-09T03:43:58.178Z,4.07
2022-09-09T03:46:26.199Z,4.00
2022-09-09T03:48:53.438Z,4.07
2022-09-09T03:51:20.646Z,4.18
2022-09-09T03:53:47.562Z,4.05
2022-09-09T03:56:14.707Z,3.90
2022-09-09T03:58:41.947Z,4.15
2022-09-09T04:01:11.744Z,3.72
2022-09-09T04:03:38.597Z,3.17
2022-09-09T04:06:07.289Z,3.63
2022-09-09T04:08:34.210Z,3.70
2022-09-09T04:11:06.282Z,3.85
2022-09-09T04:13:38.613Z,3.90
2022-09-09T04:16:05.833Z,3.25
2022-09-09T04:18:32.796Z,3.53
2022-09-09T04:20:59.585Z,3.40
2022-09-09T04:23:28.295Z,3.22
2022-09-09T04:25:57.928Z,3.40
2022-09-09T04:28:26.864Z,3.22
2022-09-09T04:30:53.633Z,3.40
2022-09-09T04:33:20.866Z,3.17
2022-09-09T04:35:49.370Z,3.00
2022-09-09T04:38:17.447Z,3.38
2022-09-09T04:40:45.166Z,2.83
2022-09-09T04:43:14.572Z,3.42
2022-09-09T04:48:10.566Z,3.20
2022-09-09T04:50:37.393Z,2.97
2022-09-09T04:53:05.835Z,2.65
2022-09-09T04:55:33.215Z,2.95
2022-09-09T04:58:07.453Z,2.97
2022-09-09T05:00:38.266Z,3.10
2022-09-09T05:03:09.799Z,2.60
2022-09-09T05:05:36.891Z,2.97
2022-09-09T05:08:05.612Z,2.63
2022-09-09T05:10:32.861Z,2.67
2022-09-09T05:12:59.676Z,2.63
2022-09-09T05:15:26.704Z,2.70
2022-09-09T05:17:54.106Z,2.88
2022-09-09T05:20:21.142Z,2.38
2022-09-09T05:22:47.925Z,2.50
2022-09-09T05:25:14.926Z,2.47
2022-09-09T05:27:41.690Z,2.78
2022-09-09T05:30:09.221Z,2.67
2022-09-09T05:32:36.169Z,2.47
2022-09-09T05:35:02.979Z,2.45
2022-09-09T05:37:31.200Z,2.70
2022-09-09T05:39:58.989Z,2.60
2022-09-09T05:42:25.844Z,2.30
2022-09-09T05:44:55.323Z,2.80
2022-09-09T05:49:50.360Z,2.08
2022-09-09T05:52:17.178Z,2.50
2022-09-09T05:54:44.290Z,2.40
2022-09-09T05:57:11.058Z,2.22
2022-09-09T05:59:38.261Z,2.35
2022-09-09T06:02:05.173Z,2.17
2022-09-09T06:04:32.311Z,2.22
2022-09-09T06:06:59.090Z,2.33
2022-09-09T06:09:26.262Z,2.30
2022-09-09T06:11:53.056Z,2.38
2022-09-09T06:14:19.863Z,2.20
2022-09-09T06:16:47.119Z,2.05
2022-09-09T06:19:14.024Z,2.22
2022-09-09T06:21:41.848Z,2.17
2022-09-09T06:24:08.657Z,2.33
2022-09-09T06:26:37.435Z,1.98
2022-09-09T06:29:05.480Z,2.08
2022-09-09T06:31:35.330Z,2.17
2022-09-09T06:34:03.113Z,1.98
2022-09-09T06:36:32.185Z,2.03
2022-09-09T06:38:59.605Z,1.77
2022-09-09T06:41:31.110Z,1.90
2022-09-09T06:43:58.079Z,1.63
2022-09-09T06:46:31.303Z,2.20
2022-09-09T06:48:59.784Z,2.10
2022-09-09T06:51:31.733Z,2.17
2022-09-09T06:54:00.788Z,2.25
2022-09-09T06:56:29.576Z,2.10
2022-09-09T06:58:58.776Z,2.40
2022-09-09T07:01:31.474Z,2.05
2022-09-09T07:04:02.986Z,1.83
2022-09-09T07:06:31.786Z,2.10
2022-09-09T07:09:00.805Z,1.95
2022-09-09T07:11:29.713Z,2.03
2022-09-09T07:13:58.462Z,1.83
2022-09-09T07:16:25.795Z,1.88
2022-09-09T07:18:53.651Z,2.42
2022-09-09T07:21:21.980Z,1.92
2022-09-09T07:23:49.681Z,1.80
2022-09-09T07:26:20.284Z,2.00
2022-09-09T07:28:47.462Z,1.67
2022-09-09T07:31:17.634Z,33.10
2022-09-09T07:33:45.484Z,29.40
2022-09-09T07:36:24.240Z,23.50
2022-09-09T07:38:56.331Z,19.85
2022-09-09T07:41:33.015Z,18.52
2022-09-09T07:43:59.816Z,15.73
2022-09-09T07:46:27.685Z,15.07
2022-09-09T07:48:56.659Z,13.85
2022-09-09T07:51:24.603Z,14.15
2022-09-09T07:53:59.630Z,14.60
2022-09-09T07:56:27.782Z,13.45
2022-09-09T07:58:55.665Z,12.02
2022-09-09T08:01:30.922Z,11.52
2022-09-09T08:04:02.347Z,9.95
2022-09-09T08:06:31.442Z,9.60
2022-09-09T08:08:58.200Z,9.68
2022-09-09T08:11:27.132Z,9.70
2022-09-09T08:13:56.927Z,8.82
2022-09-09T08:16:28.997Z,8.35
2022-09-09T08:18:56.062Z,8.25
2022-09-09T08:21:25.324Z,7.97
2022-09-09T08:23:57.840Z,7.22
2022-09-09T08:26:27.724Z,7.60
2022-09-09T08:31:28.859Z,7.20
2022-09-09T08:33:56.677Z,7.28
2022-09-09T08:36:26.619Z,6.63
2022-09-09T08:38:58.005Z,6.78
2022-09-09T08:41:40.770Z,6.57
2022-09-09T08:44:29.162Z,6.55
2022-09-09T08:47:33.711Z,6.10
2022-09-09T08:50:15.396Z,6.40
2022-09-09T08:52:51.223Z,6.32
2022-09-09T08:55:27.091Z,6.53
2022-09-09T08:58:01.920Z,6.72
2022-09-09T09:00:47.377Z,5.60
2022-09-09T09:03:27.093Z,5.93
2022-09-09T09:06:17.014Z,5.78
2022-09-09T09:09:12.357Z,5.70
2022-09-09T09:12:01.745Z,4.90
2022-09-09T09:17:21.484Z,4.68
2022-09-09T09:19:50.580Z,4.82
2022-09-09T09:22:32.140Z,5.10
2022-09-09T09:25:29.250Z,5.15
2022-09-09T09:28:11.964Z,4.45
2022-09-09T09:30:55.434Z,4.65
2022-09-09T09:33:38.508Z,4.15
2022-09-09T09:36:09.092Z,4.45
2022-09-09T09:41:50.352Z,4.45
2022-09-09T09:44:43.781Z,4.25
2022-09-09T09:47:17.477Z,4.00
2022-09-09T09:50:00.844Z,4.03
2022-09-09T09:52:30.522Z,3.55
2022-09-09T09:55:02.751Z,4.30
2022-09-09T09:57:32.626Z,3.50
2022-09-09T10:00:15.593Z,3.92
2022-09-09T10:02:44.937Z,3.65
2022-09-09T10:05:27.608Z,3.47
2022-09-09T10:08:17.554Z,3.45
2022-09-09T10:10:50.100Z,9.25
2022-09-09T10:13:22.224Z,12.43
2022-09-09T10:16:21.994Z,10.55
2022-09-09T10:19:16.051Z,9.02
2022-09-09T10:21:45.913Z,7.72
2022-09-09T10:24:18.614Z,6.85
2022-09-09T10:27:13.802Z,6.90
2022-09-09T10:30:01.983Z,6.40
2022-09-09T10:32:43.952Z,6.03
2022-09-09T10:35:25.397Z,8.20
2022-09-09T10:38:14.754Z,12.05
2022-09-09T10:40:48.683Z,10.13
2022-09-09T10:43:49.508Z,8.75
2022-09-09T10:46:16.240Z,7.70
2022-09-09T10:49:01.841Z,8.30
2022-09-09T10:51:44.099Z,8.02
2022-09-09T10:54:13.682Z,7.63
2022-09-09T10:56:43.062Z,6.82
2022-09-09T10:59:21.738Z,5.93
2022-09-09T11:02:13.808Z,5.65
2022-09-09T11:04:46.353Z,6.28
2022-09-09T11:07:23.361Z,5.60
2022-09-09T11:09:53.912Z,5.53
2022-09-09T11:12:21.401Z,5.95
2022-09-09T11:14:57.335Z,5.43
2022-09-09T11:17:28.225Z,5.22
2022-09-09T11:19:55.960Z,6.22
2022-09-09T11:22:38.001Z,6.72
2022-09-09T11:25:09.685Z,7.05
2022-09-09T11:28:03.079Z,7.00
2022-09-09T11:30:56.963Z,6.70
2022-09-09T11:33:50.123Z,6.00
2022-09-09T11:36:47.641Z,5.13
2022-09-09T11:39:31.422Z,20.88
2022-09-09T11:42:09.215Z,23.88
2022-09-09T11:47:31.280Z,17.02
2022-09-09T11:50:16.393Z,14.20
2022-09-09T11:52:46.980Z,13.48
2022-09-09T11:55:27.546Z,12.88
2022-09-09T11:58:05.587Z,11.35
2022-09-09T12:00:36.001Z,10.45
2022-09-09T12:03:02.862Z,13.02
2022-09-09T12:05:47.220Z,17.48
2022-09-09T12:08:18.824Z,14.35
2022-09-09T12:10:58.127Z,13.85
2022-09-09T12:13:27.660Z,11.77
2022-09-09T12:18:27.447Z,10.55
2022-09-09T12:23:59.073Z,9.25
2022-09-09T12:26:34.178Z,8.10
2022-09-09T12:29:19.646Z,7.68
2022-09-09T12:31:55.216Z,7.00
2022-09-09T12:34:33.604Z,6.53
2022-09-09T12:37:05.379Z,6.25
2022-09-09T12:39:40.127Z,5.65
2022-09-09T12:42:17.730Z,5.50
2022-09-09T12:44:54.431Z,5.10
2022-09-09T12:47:46.949Z,4.55
2022-09-09T12:50:20.491Z,4.00
2022-09-09T12:52:49.356Z,2.78
2022-09-09T12:55:20.330Z,2.13
2022-09-09T12:57:47.225Z,4.45
2022-09-09T13:00:24.985Z,5.97
2022-09-09T13:02:59.973Z,4.85
2022-09-09T13:05:29.134Z,2.67
2022-09-09T13:08:06.752Z,2.15
2022-09-09T13:10:52.864Z,1.60
2022-09-09T13:13:41.373Z,1.20
2022-09-09T13:16:32.780Z,1.30
2022-09-09T13:21:44.477Z,1.00
2022-09-09T13:24:32.065Z,0.95
2022-09-09T13:27:25.505Z,1.20
2022-09-09T13:29:57.733Z,0.90
2022-09-09T13:32:27.955Z,1.10
2022-09-09T13:35:00.458Z,1.02
2022-09-09T13:37:38.522Z,0.80
2022-09-09T13:42:45.672Z,1.10
2022-09-09T13:45:24.128Z,1.30
2022-09-09T13:47:56.283Z,1.20
2022-09-09T13:50:24.378Z,1.10
2022-09-09T13:52:54.340Z,1.27
2022-09-09T13:55:23.343Z,1.20
2022-09-09T13:57:55.351Z,1.63
2022-09-09T14:00:23.371Z,2.30
2022-09-09T14:02:50.975Z,1.88
2022-09-09T14:05:19.074Z,2.00
2022-09-09T14:07:49.154Z,1.80
2022-09-09T14:10:19.439Z,2.20
2022-09-09T14:12:47.640Z,1.30
2022-09-09T14:15:15.499Z,1.92
2022-09-09T14:17:42.530Z,1.70
2022-09-09T14:20:11.109Z,1.55
2022-09-09T14:22:40.113Z,1.83
2022-09-09T14:25:07.546Z,1.13
2022-09-09T14:27:34.366Z,1.50
2022-09-09T14:30:02.861Z,1.27
2022-09-09T14:32:30.283Z,1.35
2022-09-09T14:34:57.185Z,1.00
2022-09-09T14:37:24.021Z,1.20
2022-09-09T14:39:51.534Z,1.70
2022-09-09T14:42:20.511Z,1.35
2022-09-09T14:44:47.253Z,1.13
2022-09-09T14:47:14.024Z,0.85
2022-09-09T14:49:42.720Z,1.08
2022-09-09T14:52:12.268Z,1.10
2022-09-09T14:54:39.076Z,0.95
2022-09-09T14:57:05.894Z,1.05
2022-09-09T14:59:32.631Z,1.50
2022-09-09T15:02:01.708Z,1.02
2022-09-09T15:04:28.679Z,1.13
2022-09-09T15:06:55.465Z,1.00
2022-09-09T15:09:22.319Z,1.20
2022-09-09T15:11:49.675Z,0.77
2022-09-09T15:14:16.444Z,1.45
2022-09-09T15:16:43.227Z,1.00
2022-09-09T15:19:10.271Z,1.52
2022-09-09T15:21:39.008Z,1.52
2022-09-09T15:24:08.264Z,1.27
2022-09-09T15:26:37.214Z,1.25
2022-09-09T15:29:04.300Z,1.17
2022-09-09T15:31:32.887Z,1.00
2022-09-09T15:34:08.044Z,1.00
2022-09-09T15:36:39.626Z,1.05
2022-09-09T15:39:09.154Z,0.90
2022-09-09T15:44:03.102Z,0.93
2022-09-09T15:46:37.043Z,0.90
2022-09-09T15:49:15.459Z,0.77
2022-09-09T15:51:45.089Z,0.93
2022-09-09T15:54:14.450Z,1.25
2022-09-09T15:56:41.899Z,0.88
2022-09-09T15:59:09.152Z,1.00
2022-09-09T16:01:36.629Z,1.13
2022-09-09T16:04:03.682Z,1.15
2022-09-09T16:06:30.782Z,1.00
2022-09-09T16:08:58.875Z,0.93
2022-09-09T16:11:32.062Z,1.17
2022-09-09T16:13:59.497Z,1.00
2022-09-09T16:16:29.365Z,1.00
2022-09-09T16:18:58.510Z,1.15
2022-09-09T16:21:30.898Z,0.90
2022-09-09T16:24:00.479Z,0.93
2022-09-09T16:26:28.688Z,1.50
2022-09-09T16:28:55.560Z,1.90
2022-09-09T16:31:24.817Z,2.25
2022-09-09T16:33:52.509Z,1.67
2022-09-09T16:36:21.961Z,1.30
2022-09-09T16:38:48.910Z,1.38
2022-09-09T16:41:16.060Z,1.10
2022-09-09T16:43:43.049Z,1.27
2022-09-09T16:46:19.213Z,1.30
2022-09-09T16:48:47.119Z,1.20
2022-09-09T16:51:26.464Z,1.50
2022-09-09T16:53:54.563Z,1.60
2022-09-09T16:56:26.284Z,1.25
2022-09-09T16:58:56.669Z,1.13
2022-09-09T17:01:24.617Z,1.27
2022-09-09T17:04:00.613Z,2.40
2022-09-09T17:06:29.401Z,3.60
2022-09-09T17:09:01.629Z,2.80
2022-09-09T17:11:29.544Z,2.05
2022-09-09T17:13:59.046Z,1.58
2022-09-09T17:18:55.930Z,1.48
2022-09-09T17:21:26.303Z,1.83
2022-09-09T17:23:53.805Z,1.17
2022-09-09T17:26:22.274Z,1.70
2022-09-09T17:28:49.442Z,1.42
2022-09-09T17:31:18.525Z,1.67
2022-09-09T17:33:47.539Z,1.27
2022-09-09T17:36:17.406Z,1.30
2022-09-09T17:38:45.184Z,1.20
2022-09-09T17:41:14.761Z,1.38
2022-09-09T17:43:43.192Z,1.25
2022-09-09T17:46:22.980Z,1.40
2022-09-09T17:48:51.891Z,1.75
2022-09-09T17:51:28.280Z,2.45
2022-09-09T17:53:59.274Z,1.95
2022-09-09T17:56:29.200Z,1.60
2022-09-09T17:58:56.034Z,1.90
2022-09-09T18:01:25.270Z,1.65
2022-09-09T18:03:52.362Z,1.50
2022-09-09T18:06:21.569Z,1.38
2022-09-09T18:08:56.751Z,1.38
2022-09-09T18:11:25.918Z,1.67
2022-09-09T18:13:57.768Z,1.85
2022-09-09T18:16:26.819Z,10.23
2022-09-09T18:18:55.849Z,9.02
2022-09-09T18:21:24.306Z,5.85
2022-09-09T18:23:52.550Z,4.47
2022-09-09T18:26:24.576Z,3.75
2022-09-09T18:28:53.850Z,2.70
2022-09-09T18:31:23.494Z,2.65
2022-09-09T18:33:51.071Z,2.15
2022-09-09T18:36:26.694Z,2.58
2022-09-09T18:38:53.605Z,2.33
2022-09-09T18:41:26.855Z,2.50
2022-09-09T18:43:57.366Z,2.80
2022-09-09T18:46:25.388Z,1.80
2022-09-09T18:48:52.340Z,2.10
2022-09-09T18:51:21.137Z,2.22
2022-09-09T18:53:52.820Z,1.73
2022-09-09T18:58:48.552Z,1.70
2022-09-09T19:01:15.946Z,2.07
2022-09-09T19:03:42.946Z,1.60
2022-09-09T19:06:12.497Z,1.40
2022-09-09T19:11:08.854Z,1.13
2022-09-09T19:13:36.278Z,1.00
2022-09-09T19:16:08.365Z,1.08
2022-09-09T19:18:39.680Z,1.10
2022-09-09T19:21:24.566Z,0.90
2022-09-09T19:24:00.578Z,1.00
2022-09-09T19:26:29.526Z,1.02
2022-09-09T19:28:59.060Z,1.90
2022-09-09T19:33:55.822Z,4.18
2022-09-09T19:36:25.174Z,2.88
2022-09-09T19:38:54.230Z,2.42
2022-09-09T19:41:24.679Z,2.20
2022-09-09T19:43:53.160Z,1.92
2022-09-09T19:46:19.967Z,1.77
2022-09-09T19:48:47.165Z,1.63
2022-09-09T19:51:21.706Z,1.60
2022-09-09T19:53:51.259Z,1.50
2022-09-09T19:56:20.446Z,1.70
2022-09-09T19:58:48.331Z,1.55
2022-09-09T20:01:20.437Z,1.42
2022-09-09T20:03:49.875Z,1.40
2022-09-09T20:06:17.868Z,1.42
2022-09-09T20:08:46.072Z,1.48
2022-09-09T20:11:14.390Z,1.40
2022-09-09T20:13:41.475Z,1.20
2022-09-09T20:16:13.886Z,1.27
2022-09-09T20:18:42.849Z,1.33
2022-09-09T20:21:21.052Z,1.40
2022-09-09T20:23:49.182Z,1.25
2022-09-09T20:26:18.737Z,1.10
2022-09-09T20:31:14.646Z,1.10
2022-09-09T20:33:42.493Z,1.30
2022-09-09T20:36:11.500Z,1.20
2022-09-09T20:38:46.887Z,1.15
2022-09-09T20:41:15.015Z,1.33
2022-09-09T20:43:52.456Z,1.40
2022-09-09T20:46:25.392Z,1.15
2022-09-09T20:48:56.749Z,1.48
2022-09-09T20:51:27.856Z,21.08
2022-09-09T20:53:56.992Z,13.10
2022-09-09T20:56:24.736Z,6.53
2022-09-09T20:58:51.526Z,4.70
2022-09-09T21:01:19.689Z,3.88
2022-09-09T21:03:46.861Z,3.63
2022-09-09T21:06:14.885Z,3.13
2022-09-09T21:08:41.794Z,2.60
2022-09-09T21:11:08.637Z,2.63
2022-09-09T21:13:37.245Z,2.88
2022-09-09T21:16:06.150Z,2.20
2022-09-09T21:18:34.670Z,2.40
2022-09-09T21:21:02.728Z,2.45
2022-09-09T21:23:29.969Z,2.20
2022-09-09T21:25:56.710Z,2.20
2022-09-09T21:28:25.685Z,2.30
2022-09-09T21:30:54.774Z,2.22
2022-09-09T21:33:23.447Z,1.80
2022-09-09T21:35:50.351Z,2.28
2022-09-09T21:38:19.276Z,1.95
2022-09-09T21:40:46.269Z,3.13
2022-09-09T21:43:14.550Z,4.57
2022-09-09T21:45:42.293Z,2.90
2022-09-09T21:48:11.554Z,3.20
2022-09-09T21:50:43.030Z,2.38
2022-09-09T21:53:11.167Z,2.45
2022-09-09T21:55:41.185Z,2.10
2022-09-09T21:58:11.726Z,1.80
2022-09-09T22:00:46.004Z,1.90
2022-09-09T22:03:14.745Z,1.55
2022-09-09T22:05:42.898Z,1.67
2022-09-09T22:08:11.171Z,1.63
2022-09-09T22:10:39.879Z,1.30
2022-09-09T22:13:07.257Z,4.18
2022-09-09T22:15:34.565Z,6.22
2022-09-09T22:18:03.236Z,4.85
2022-09-09T22:20:34.344Z,3.00
2022-09-09T22:23:01.518Z,3.10
2022-09-09T22:25:33.071Z,2.72
2022-09-09T22:27:59.807Z,2.08
2022-09-09T22:30:26.577Z,1.83
2022-09-09T22:32:53.322Z,2.00
2022-09-09T22:35:20.053Z,2.13
2022-09-09T22:37:47.342Z,1.77
2022-09-09T22:40:14.441Z,1.80
2022-09-09T22:42:41.850Z,1.85
2022-09-09T22:45:09.958Z,2.03
2022-09-09T22:47:37.237Z,1.40
2022-09-09T22:50:04.477Z,1.40
2022-09-09T22:52:33.957Z,1.20
2022-09-09T22:57:28.229Z,1.48
2022-09-09T22:59:55.047Z,1.63
2022-09-09T23:02:22.624Z,15.18
2022-09-09T23:04:49.433Z,10.18
2022-09-09T23:07:20.923Z,5.25
2022-09-09T23:09:47.852Z,4.35
2022-09-09T23:12:14.900Z,3.03
2022-09-09T23:14:41.791Z,3.08
2022-09-09T23:17:08.864Z,2.70
2022-09-09T23:19:37.147Z,2.50
2022-09-09T23:22:04.720Z,2.50
2022-09-09T23:24:31.477Z,2.55
2022-09-09T23:26:58.254Z,2.40
2022-09-09T23:29:25.040Z,2.40
2022-09-09T23:31:51.830Z,2.40
2022-09-09T23:34:18.910Z,2.38
2022-09-09T23:36:45.989Z,2.28
2022-09-09T23:39:13.315Z,2.20
2022-09-09T23:41:40.320Z,2.00
2022-09-09T23:44:07.534Z,2.33
2022-09-09T23:46:35.211Z,2.53
2022-09-09T23:49:02.543Z,2.00
2022-09-09T23:51:30.961Z,1.77
2022-09-09T23:54:01.533Z,2.17
2022-09-09T23:56:31.198Z,2.10
2022-09-09T23:58:58.420Z,1.92
